createdAt,value
2022-11-27T00:01:00.550Z,7.40
2022-11-27T00:03:27.985Z,7.40
2022-11-27T00:05:58.885Z,7.40
2022-11-27T00:08:25.705Z,7.40
2022-11-27T00:10:52.329Z,7.40
2022-11-27T00:13:19.197Z,7.40
2022-11-27T00:15:46.065Z,7.40
2022-11-27T00:18:13.080Z,7.40
2022-11-27T00:20:40.010Z,7.40
2022-11-27T00:23:06.659Z,7.40
2022-11-27T00:25:33.305Z,7.40
2022-11-27T00:27:59.911Z,7.40
2022-11-27T00:30:26.487Z,7.40
2022-11-27T00:32:53.025Z,7.40
2022-11-27T00:35:19.729Z,7.40
2022-11-27T00:37:46.283Z,7.40
2022-11-27T00:40:13.059Z,7.30
2022-11-27T00:42:39.585Z,7.30
2022-11-27T00:45:06.594Z,7.30
2022-11-27T00:47:33.161Z,7.30
2022-11-27T00:49:59.768Z,7.20
2022-11-27T00:52:26.498Z,7.30
2022-11-27T00:54:53.182Z,7.20
2022-11-27T00:57:19.751Z,7.20
2022-11-27T00:59:46.400Z,7.20
2022-11-27T01:02:13.092Z,7.10
2022-11-27T01:04:40.083Z,7.10
2022-11-27T01:07:06.944Z,7.10
2022-11-27T01:09:33.506Z,7.10
2022-11-27T01:12:00.060Z,7.10
2022-11-27T01:14:26.665Z,7.00
2022-11-27T01:16:53.266Z,7.00
2022-11-27T01:19:19.950Z,7.00
2022-11-27T01:21:46.995Z,7.00
2022-11-27T01:24:15.260Z,6.90
2022-11-27T01:26:43.276Z,6.90
2022-11-27T01:29:09.977Z,6.90
2022-11-27T01:31:36.779Z,6.90
2022-11-27T01:34:06.055Z,6.90
2022-11-27T01:36:34.035Z,6.90
2022-11-27T01:39:01.326Z,6.90
2022-11-27T01:41:33.621Z,6.90
2022-11-27T01:44:24.458Z,6.90
2022-11-27T01:47:00.892Z,6.90
2022-11-27T01:49:48.644Z,6.90
2022-11-27T01:52:23.920Z,6.90
2022-11-27T01:55:02.120Z,6.90
2022-11-27T01:57:36.466Z,6.90
2022-11-27T02:00:06.511Z,6.90
2022-11-27T02:02:33.145Z,6.90
2022-11-27T02:04:59.810Z,6.90
2022-11-27T02:07:26.521Z,6.90
2022-11-27T02:09:53.183Z,6.90
2022-11-27T02:12:27.021Z,6.90
2022-11-27T02:15:06.030Z,6.90
2022-11-27T02:18:03.654Z,6.90
2022-11-27T02:20:48.707Z,6.80
2022-11-27T02:23:34.162Z,6.90
2022-11-27T02:26:12.802Z,6.80
2022-11-27T02:29:02.581Z,6.80
2022-11-27T02:31:32.320Z,6.90
2022-11-27T02:34:08.949Z,6.80
2022-11-27T02:36:37.751Z,6.80
2022-11-27T02:39:10.504Z,6.80
2022-11-27T02:41:44.472Z,6.80
2022-11-27T02:44:12.151Z,6.80
2022-11-27T02:46:41.172Z,6.80
2022-11-27T02:49:12.071Z,6.80
2022-11-27T02:51:43.879Z,6.80
2022-11-27T02:54:17.438Z,6.80
2022-11-27T02:56:45.043Z,6.80
2022-11-27T02:59:13.562Z,6.80
2022-11-27T03:01:50.792Z,6.80
2022-11-27T03:04:21.571Z,6.80
2022-11-27T03:06:54.410Z,6.90
2022-11-27T03:09:39.792Z,6.90
2022-11-27T03:12:08.327Z,6.90
2022-11-27T03:14:36.815Z,6.90
2022-11-27T03:17:11.544Z,6.90
2022-11-27T03:19:50.541Z,6.90
2022-11-27T03:22:18.893Z,6.90
2022-11-27T03:24:45.609Z,6.90
2022-11-27T03:27:18.690Z,6.90
2022-11-27T03:30:00.722Z,6.90
2022-11-27T03:32:28.714Z,6.90
2022-11-27T03:34:56.032Z,6.90
2022-11-27T03:37:24.064Z,6.90
2022-11-27T03:39:51.357Z,6.90
2022-11-27T03:42:33.947Z,6.90
2022-11-27T03:45:00.599Z,6.90
2022-11-27T03:47:50.405Z,6.90
2022-11-27T03:50:37.969Z,6.90
2022-11-27T03:53:39.814Z,6.80
2022-11-27T03:56:38.396Z,6.90
2022-11-27T03:59:20.192Z,6.90
2022-11-27T04:01:47.299Z,6.80
2022-11-27T04:04:14.476Z,6.80
2022-11-27T04:06:41.087Z,6.90
2022-11-27T04:09:07.708Z,6.90
2022-11-27T04:11:34.381Z,6.90
2022-11-27T04:14:01.006Z,6.80
2022-11-27T04:16:27.649Z,6.80
2022-11-27T04:18:54.349Z,6.80
2022-11-27T04:21:21.035Z,6.90
2022-11-27T04:23:47.737Z,6.80
2022-11-27T04:26:14.322Z,6.90
2022-11-27T04:28:40.901Z,6.80
2022-11-27T04:31:07.596Z,6.80
2022-11-27T04:33:34.417Z,6.80
2022-11-27T04:36:00.977Z,6.80
2022-11-27T04:38:27.636Z,6.80
2022-11-27T04:40:54.390Z,6.80
2022-11-27T04:43:21.102Z,6.80
2022-11-27T04:45:47.712Z,6.80
2022-11-27T04:48:14.248Z,6.80
2022-11-27T04:50:40.953Z,6.80
2022-11-27T04:53:07.560Z,6.80
2022-11-27T04:55:35.648Z,6.80
2022-11-27T04:58:02.212Z,6.80
2022-11-27T05:00:28.873Z,6.80
2022-11-27T05:02:55.660Z,6.80
2022-11-27T05:05:22.351Z,6.80
2022-11-27T05:07:48.963Z,6.80
2022-11-27T05:10:15.704Z,6.80
2022-11-27T05:12:42.317Z,6.80
2022-11-27T05:15:09.437Z,6.80
2022-11-27T05:17:36.127Z,6.80
2022-11-27T05:20:02.915Z,6.80
2022-11-27T05:22:29.551Z,6.80
2022-11-27T05:24:56.145Z,6.80
2022-11-27T05:27:22.746Z,6.80
2022-11-27T05:29:49.381Z,6.70
2022-11-27T05:32:16.012Z,6.80
2022-11-27T05:34:42.835Z,6.80
2022-11-27T05:37:09.704Z,6.80
2022-11-27T05:39:36.289Z,6.80
2022-11-27T05:42:02.902Z,6.80
2022-11-27T05:44:29.582Z,6.80
2022-11-27T05:46:57.155Z,6.80
2022-11-27T05:49:23.818Z,6.80
2022-11-27T05:51:51.628Z,6.80
2022-11-27T05:54:19.366Z,6.80
2022-11-27T05:56:46.017Z,6.80
2022-11-27T05:59:12.748Z,6.80
2022-11-27T06:01:39.440Z,6.80
2022-11-27T06:04:06.138Z,6.80
2022-11-27T06:06:32.733Z,6.80
2022-11-27T06:08:59.321Z,6.80
2022-11-27T06:11:25.904Z,6.80
2022-11-27T06:13:52.587Z,6.80
2022-11-27T06:16:21.539Z,6.70
2022-11-27T06:18:52.416Z,6.70
2022-11-27T06:21:20.240Z,6.70
2022-11-27T06:23:47.214Z,6.70
2022-11-27T06:26:24.065Z,6.70
2022-11-27T06:28:51.053Z,6.70
2022-11-27T06:31:23.587Z,6.70
2022-11-27T06:33:52.233Z,6.70
2022-11-27T06:36:20.098Z,6.70
2022-11-27T06:38:46.913Z,6.70
2022-11-27T06:41:17.326Z,6.70
2022-11-27T06:43:44.542Z,6.70
2022-11-27T06:46:16.494Z,6.70
2022-11-27T06:48:44.564Z,6.70
2022-11-27T06:51:14.150Z,6.70
2022-11-27T06:53:41.510Z,6.70
2022-11-27T06:56:10.577Z,6.70
2022-11-27T06:58:37.498Z,6.70
2022-11-27T07:01:07.396Z,6.70
2022-11-27T07:03:34.584Z,6.70
2022-11-27T07:06:04.768Z,6.70
2022-11-27T07:08:32.194Z,6.70
2022-11-27T07:11:04.209Z,6.70
2022-11-27T07:13:31.315Z,6.70
2022-11-27T07:16:07.246Z,6.70
2022-11-27T07:18:45.745Z,6.70
2022-11-27T07:21:13.224Z,6.60
2022-11-27T07:23:39.913Z,6.60
2022-11-27T07:26:11.116Z,6.60
2022-11-27T07:28:37.954Z,6.60
2022-11-27T07:31:04.756Z,6.60
2022-11-27T07:33:31.810Z,6.60
2022-11-27T07:36:07.093Z,6.60
2022-11-27T07:38:34.349Z,6.60
2022-11-27T07:41:02.395Z,6.60
2022-11-27T07:43:29.981Z,6.60
2022-11-27T07:45:57.332Z,6.60
2022-11-27T07:48:24.106Z,6.60
2022-11-27T07:50:50.921Z,6.60
2022-11-27T07:53:17.579Z,6.60
2022-11-27T07:55:44.201Z,6.60
2022-11-27T07:58:10.881Z,6.60
2022-11-27T08:00:37.537Z,6.60
2022-11-27T08:03:04.241Z,6.60
2022-11-27T08:05:34.409Z,6.60
2022-11-27T08:08:04.068Z,6.60
2022-11-27T08:10:34.387Z,6.60
2022-11-27T08:13:00.975Z,6.60
2022-11-27T08:15:27.566Z,6.60
2022-11-27T08:17:54.225Z,6.60
2022-11-27T08:20:20.993Z,6.60
2022-11-27T08:22:47.726Z,6.60
2022-11-27T08:25:15.051Z,6.60
2022-11-27T08:27:41.682Z,6.60
2022-11-27T08:30:09.240Z,6.60
2022-11-27T08:32:39.611Z,6.60
2022-11-27T08:35:07.334Z,6.60
2022-11-27T08:37:34.149Z,6.70
2022-11-27T08:40:00.822Z,6.70
2022-11-27T08:42:27.469Z,6.70
2022-11-27T08:44:54.118Z,6.70
2022-11-27T08:47:20.745Z,6.70
2022-11-27T08:49:47.297Z,6.70
2022-11-27T08:52:13.953Z,6.70
2022-11-27T08:54:40.713Z,6.70
2022-11-27T08:57:07.581Z,6.70
2022-11-27T08:59:34.179Z,6.70
2022-11-27T09:02:00.940Z,6.80
2022-11-27T09:04:28.995Z,6.80
2022-11-27T09:06:58.695Z,6.80
2022-11-27T09:09:25.500Z,6.80
2022-11-27T09:11:54.544Z,6.80
2022-11-27T09:14:21.190Z,6.80
2022-11-27T09:16:48.042Z,6.90
2022-11-27T09:19:14.766Z,6.90
2022-11-27T09:21:41.350Z,6.90
2022-11-27T09:24:09.374Z,6.90
2022-11-27T09:26:36.128Z,6.90
2022-11-27T09:29:03.914Z,7.00
2022-11-27T09:31:30.603Z,6.90
2022-11-27T09:33:58.490Z,6.90
2022-11-27T09:36:26.120Z,7.00
2022-11-27T09:38:53.637Z,7.00
2022-11-27T09:41:46.157Z,7.00
2022-11-27T09:44:28.153Z,7.10
2022-11-27T09:46:56.484Z,7.10
2022-11-27T09:49:29.262Z,7.10
2022-11-27T09:52:12.799Z,7.10
2022-11-27T09:55:06.297Z,7.20
2022-11-27T09:57:36.955Z,7.20
2022-11-27T10:00:18.971Z,7.20
2022-11-27T10:02:46.330Z,7.30
2022-11-27T10:05:28.590Z,7.30
2022-11-27T10:08:06.415Z,7.30
2022-11-27T10:10:48.090Z,7.30
2022-11-27T10:13:47.246Z,7.40
2022-11-27T10:16:30.839Z,7.40
2022-11-27T10:19:16.096Z,7.40
2022-11-27T10:22:21.383Z,7.40
2022-11-27T10:25:05.655Z,7.40
2022-11-27T10:27:35.922Z,7.50
2022-11-27T10:30:12.951Z,7.50
2022-11-27T10:32:55.109Z,7.50
2022-11-27T10:35:25.948Z,7.50
2022-11-27T10:38:11.263Z,7.50
2022-11-27T10:40:43.877Z,7.50
2022-11-27T10:43:19.092Z,7.50
2022-11-27T10:45:51.183Z,7.50
2022-11-27T10:48:18.351Z,7.50
2022-11-27T10:50:46.041Z,7.60
2022-11-27T10:53:35.380Z,7.60
2022-11-27T10:56:32.201Z,7.60
2022-11-27T10:59:15.981Z,7.60
2022-11-27T11:01:57.222Z,7.70
2022-11-27T11:04:38.493Z,7.70
2022-11-27T11:07:28.327Z,7.70
2022-11-27T11:09:56.082Z,7.70
2022-11-27T11:12:23.833Z,7.80
2022-11-27T11:14:55.819Z,7.80
2022-11-27T11:17:26.582Z,7.80
2022-11-27T11:19:53.642Z,7.80
2022-11-27T11:22:20.849Z,7.80
2022-11-27T11:24:53.061Z,7.80
2022-11-27T11:27:25.036Z,7.90
2022-11-27T11:29:59.917Z,7.90
2022-11-27T11:32:39.294Z,8.00
2022-11-27T11:35:24.982Z,8.00
2022-11-27T11:37:53.091Z,8.00
2022-11-27T11:40:26.553Z,8.10
2022-11-27T11:43:06.429Z,8.10
2022-11-27T11:45:34.642Z,8.10
2022-11-27T11:48:25.725Z,8.10
2022-11-27T11:51:01.347Z,8.10
2022-11-27T11:53:40.072Z,8.20
2022-11-27T11:56:31.157Z,8.20
2022-11-27T11:59:01.753Z,8.20
2022-11-27T12:01:57.400Z,8.30
2022-11-27T12:04:51.677Z,8.30
2022-11-27T12:07:40.090Z,8.30
2022-11-27T12:10:21.181Z,8.30
2022-11-27T12:13:02.790Z,8.30
2022-11-27T12:15:38.581Z,8.40
2022-11-27T12:18:18.770Z,8.40
2022-11-27T12:21:30.105Z,8.40
2022-11-27T12:24:18.674Z,8.50
2022-11-27T12:27:08.542Z,8.50
2022-11-27T12:29:57.800Z,8.50
2022-11-27T12:32:45.345Z,8.60
2022-11-27T12:35:31.081Z,8.60
2022-11-27T12:38:22.704Z,8.60
2022-11-27T12:41:14.108Z,8.60
2022-11-27T12:43:48.320Z,8.60
2022-11-27T12:46:27.052Z,8.60
2022-11-27T12:48:58.781Z,8.60
2022-11-27T12:51:37.364Z,8.60
2022-11-27T12:54:09.913Z,8.60
2022-11-27T12:56:47.969Z,8.60
2022-11-27T12:59:37.525Z,8.60
2022-11-27T13:02:23.785Z,8.60
2022-11-27T13:05:04.438Z,8.70
2022-11-27T13:07:40.906Z,8.60
2022-11-27T13:10:27.001Z,8.70
2022-11-27T13:13:14.537Z,8.60
2022-11-27T13:15:52.178Z,8.60
2022-11-27T13:18:21.421Z,8.60
2022-11-27T13:20:52.312Z,8.60
2022-11-27T13:23:20.688Z,8.60
2022-11-27T13:25:53.169Z,8.60
2022-11-27T13:28:30.883Z,8.60
2022-11-27T13:31:00.412Z,8.60
2022-11-27T13:33:40.033Z,8.60
2022-11-27T13:36:08.893Z,8.50
2022-11-27T13:38:41.818Z,8.50
2022-11-27T13:41:19.327Z,8.50
2022-11-27T13:43:47.529Z,8.50
2022-11-27T13:46:21.781Z,8.50
2022-11-27T13:49:03.615Z,8.50
2022-11-27T13:51:31.866Z,8.50
2022-11-27T13:54:13.057Z,8.50
2022-11-27T13:56:40.347Z,8.50
2022-11-27T13:59:23.656Z,8.50
2022-11-27T14:02:09.222Z,8.50
2022-11-27T14:04:51.690Z,8.40
2022-11-27T14:07:21.385Z,8.40
2022-11-27T14:09:56.271Z,8.40
2022-11-27T14:12:27.969Z,8.40
2022-11-27T14:15:17.646Z,8.40
2022-11-27T14:17:47.153Z,8.30
2022-11-27T14:20:16.826Z,8.30
2022-11-27T14:23:07.244Z,8.30
2022-11-27T14:25:31.253Z,8.30
2022-11-27T14:28:21.722Z,8.30
2022-11-27T14:30:50.276Z,8.30
2022-11-27T14:33:19.603Z,8.30
2022-11-27T14:35:54.179Z,8.30
2022-11-27T14:38:21.570Z,8.30
2022-11-27T14:40:49.535Z,8.30
2022-11-27T14:43:18.798Z,8.20
2022-11-27T14:45:49.953Z,8.20
2022-11-27T14:48:25.571Z,8.20
2022-11-27T14:50:54.522Z,8.20
2022-11-27T14:53:23.973Z,8.20
2022-11-27T14:55:54.826Z,8.20
2022-11-27T14:58:25.603Z,8.20
2022-11-27T15:01:02.262Z,8.20
2022-11-27T15:03:29.191Z,8.20
2022-11-27T15:06:01.530Z,8.20
2022-11-27T15:08:30.571Z,8.20
2022-11-27T15:10:58.614Z,8.20
2022-11-27T15:13:28.958Z,8.20
2022-11-27T15:16:05.906Z,8.10
2022-11-27T15:18:35.745Z,8.10
2022-11-27T15:21:08.513Z,8.10
2022-11-27T15:23:35.778Z,8.10
2022-11-27T15:26:12.591Z,8.00
2022-11-27T15:28:50.952Z,8.00
2022-11-27T15:31:31.492Z,8.00
2022-11-27T15:34:16.157Z,8.00
2022-11-27T15:37:06.355Z,8.00
2022-11-27T15:39:45.304Z,8.00
2022-11-27T15:42:12.009Z,8.00
2022-11-27T15:44:38.738Z,8.00
2022-11-27T15:47:06.844Z,8.00
2022-11-27T15:49:33.692Z,8.00
2022-11-27T15:52:00.351Z,8.00
2022-11-27T15:54:26.962Z,8.00
2022-11-27T15:56:53.611Z,8.00
2022-11-27T15:59:20.676Z,8.00
2022-11-27T16:01:48.014Z,8.00
2022-11-27T16:04:14.695Z,8.00
2022-11-27T16:06:41.270Z,8.00
2022-11-27T16:09:07.904Z,8.00
2022-11-27T16:11:34.867Z,8.00
2022-11-27T16:14:01.509Z,8.00
2022-11-27T16:16:28.329Z,8.00
2022-11-27T16:19:02.439Z,8.00
2022-11-27T16:21:30.248Z,8.00
2022-11-27T16:24:03.986Z,8.00
2022-11-27T16:26:31.059Z,8.00
2022-11-27T16:28:58.098Z,8.00
2022-11-27T16:31:25.705Z,8.00
2022-11-27T16:33:52.405Z,8.00
2022-11-27T16:36:20.509Z,8.00
2022-11-27T16:38:48.116Z,8.00
2022-11-27T16:41:17.287Z,8.10
2022-11-27T16:43:47.026Z,8.00
2022-11-27T16:46:21.390Z,8.10
2022-11-27T16:48:48.992Z,8.10
2022-11-27T16:51:18.752Z,8.00
2022-11-27T16:53:48.234Z,8.10
2022-11-27T16:56:18.136Z,8.10
2022-11-27T16:58:46.030Z,8.10
2022-11-27T17:01:16.143Z,8.10
2022-11-27T17:03:43.518Z,8.10
2022-11-27T17:06:15.621Z,8.10
2022-11-27T17:08:42.699Z,8.10
2022-11-27T17:11:20.530Z,8.00
2022-11-27T17:13:48.422Z,8.00
2022-11-27T17:16:15.680Z,8.00
2022-11-27T17:18:43.244Z,8.00
2022-11-27T17:21:14.317Z,8.00
2022-11-27T17:23:43.132Z,8.00
2022-11-27T17:26:12.734Z,8.00
2022-11-27T17:28:39.361Z,8.00
2022-11-27T17:31:10.351Z,8.10
2022-11-27T17:33:37.061Z,8.00
2022-11-27T17:36:03.980Z,8.00
2022-11-27T17:38:30.637Z,8.00
2022-11-27T17:41:09.736Z,8.00
2022-11-27T17:43:38.133Z,8.00
2022-11-27T17:46:09.513Z,8.00
2022-11-27T17:48:36.247Z,8.00
2022-11-27T17:51:03.627Z,7.90
2022-11-27T17:53:30.323Z,8.00
2022-11-27T17:56:02.920Z,8.00
2022-11-27T17:58:29.797Z,7.90
2022-11-27T18:00:56.501Z,8.00
2022-11-27T18:03:23.128Z,7.90
2022-11-27T18:05:49.745Z,7.90
2022-11-27T18:08:16.434Z,7.90
2022-11-27T18:10:43.081Z,7.90
2022-11-27T18:13:09.642Z,7.90
2022-11-27T18:15:36.425Z,7.90
2022-11-27T18:18:03.049Z,7.90
2022-11-27T18:20:29.858Z,7.90
2022-11-27T18:22:56.468Z,7.80
2022-11-27T18:25:23.090Z,7.80
2022-11-27T18:27:49.697Z,7.80
2022-11-27T18:30:16.649Z,7.80
2022-11-27T18:32:43.190Z,7.80
2022-11-27T18:35:10.705Z,7.80
2022-11-27T18:37:38.409Z,7.70
2022-11-27T18:40:09.173Z,7.70
2022-11-27T18:42:35.989Z,7.80
2022-11-27T18:45:02.703Z,7.80
2022-11-27T18:47:29.732Z,7.80
2022-11-27T18:49:58.677Z,7.70
2022-11-27T18:52:25.318Z,7.70
2022-11-27T18:54:51.959Z,7.70
2022-11-27T18:57:19.543Z,7.80
2022-11-27T18:59:46.121Z,7.70
2022-11-27T19:02:13.253Z,7.70
2022-11-27T19:04:40.661Z,7.70
2022-11-27T19:07:07.446Z,7.70
2022-11-27T19:09:34.060Z,7.70
2022-11-27T19:12:00.717Z,7.70
2022-11-27T19:14:27.259Z,7.60
2022-11-27T19:16:53.902Z,7.60
2022-11-27T19:22:09.290Z,7.60
2022-11-27T19:24:37.158Z,7.60
2022-11-27T19:27:04.018Z,7.60
2022-11-27T19:29:30.641Z,7.60
2022-11-27T19:31:58.617Z,7.60
2022-11-27T19:34:25.373Z,7.60
2022-11-27T19:36:52.874Z,7.60
2022-11-27T19:39:19.471Z,7.60
2022-11-27T19:41:46.169Z,7.60
2022-11-27T19:44:13.224Z,7.60
2022-11-27T19:46:40.368Z,7.60
2022-11-27T19:49:12.601Z,7.60
2022-11-27T19:51:39.731Z,7.60
2022-11-27T19:54:10.283Z,7.60
2022-11-27T19:56:39.657Z,7.60
2022-11-27T19:59:07.174Z,7.60
2022-11-27T20:01:33.838Z,7.60
2022-11-27T20:04:01.947Z,7.50
2022-11-27T20:06:28.547Z,7.50
2022-11-27T20:08:59.769Z,7.60
2022-11-27T20:11:31.162Z,7.60
2022-11-27T20:14:00.829Z,7.50
2022-11-27T20:16:27.534Z,7.60
2022-11-27T20:18:54.462Z,7.50
2022-11-27T20:21:23.574Z,7.60
2022-11-27T20:23:52.132Z,7.50
2022-11-27T20:26:22.104Z,7.50
2022-11-27T20:28:49.835Z,7.50
2022-11-27T20:31:22.046Z,7.50
2022-11-27T20:33:48.667Z,7.60
2022-11-27T20:36:16.874Z,7.60
2022-11-27T20:38:43.693Z,7.60
2022-11-27T20:41:12.713Z,7.50
2022-11-27T20:43:39.549Z,7.50
2022-11-27T20:46:07.584Z,7.50
2022-11-27T20:48:35.089Z,7.50
2022-11-27T20:51:15.746Z,7.50
2022-11-27T20:53:43.974Z,7.50
2022-11-27T20:56:12.924Z,7.50
2022-11-27T20:58:41.520Z,7.50
2022-11-27T21:01:29.678Z,7.50
2022-11-27T21:03:58.172Z,7.50
2022-11-27T21:06:28.341Z,7.50
2022-11-27T21:08:55.271Z,7.50
2022-11-27T21:11:25.093Z,7.50
2022-11-27T21:13:56.701Z,7.50
2022-11-27T21:16:25.599Z,7.50
2022-11-27T21:18:53.855Z,7.50
2022-11-27T21:21:21.087Z,7.50
2022-11-27T21:23:47.759Z,7.50
2022-11-27T21:26:16.156Z,7.40
2022-11-27T21:28:43.104Z,7.50
2022-11-27T21:31:22.258Z,7.50
2022-11-27T21:33:51.808Z,7.50
2022-11-27T21:36:19.593Z,7.50
2022-11-27T21:38:46.230Z,7.50
2022-11-27T21:41:13.910Z,7.50
2022-11-27T21:43:41.457Z,7.50
2022-11-27T21:46:13.698Z,7.50
2022-11-27T21:48:41.003Z,7.50
2022-11-27T21:51:12.622Z,7.50
2022-11-27T21:53:40.535Z,7.50
2022-11-27T21:56:08.785Z,7.50
2022-11-27T21:58:36.368Z,7.50
2022-11-27T22:01:10.268Z,7.50
2022-11-27T22:03:42.091Z,7.50
2022-11-27T22:06:15.224Z,7.50
2022-11-27T22:08:43.684Z,7.50
2022-11-27T22:11:13.328Z,7.50
2022-11-27T22:13:41.428Z,7.50
2022-11-27T22:16:19.866Z,7.50
2022-11-27T22:18:47.054Z,7.50
2022-11-27T22:21:14.778Z,7.50
2022-11-27T22:23:42.072Z,7.50
2022-11-27T22:26:14.374Z,7.50
2022-11-27T22:28:41.904Z,7.50
2022-11-27T22:31:17.246Z,7.50
2022-11-27T22:33:45.161Z,7.50
2022-11-27T22:36:19.440Z,7.50
2022-11-27T22:38:47.334Z,7.60
2022-11-27T22:41:14.932Z,7.60
2022-11-27T22:43:42.194Z,7.60
2022-11-27T22:46:19.456Z,7.60
2022-11-27T22:48:46.840Z,7.60
2022-11-27T22:51:13.849Z,7.60
2022-11-27T22:53:40.568Z,7.60
2022-11-27T22:56:12.450Z,7.60
2022-11-27T22:58:41.825Z,7.60
2022-11-27T23:01:18.037Z,7.60
2022-11-27T23:03:45.022Z,7.60
2022-11-27T23:06:12.769Z,7.70
2022-11-27T23:08:40.943Z,7.60
2022-11-27T23:11:08.985Z,7.70
2022-11-27T23:13:35.864Z,7.70
2022-11-27T23:16:04.328Z,7.70
2022-11-27T23:18:31.007Z,7.70
2022-11-27T23:20:57.589Z,7.70
2022-11-27T23:23:24.346Z,7.70
2022-11-27T23:25:50.989Z,7.70
2022-11-27T23:28:17.565Z,7.70
2022-11-27T23:30:44.171Z,7.60
2022-11-27T23:33:10.754Z,7.70
2022-11-27T23:35:37.406Z,7.60
2022-11-27T23:38:04.003Z,7.60
2022-11-27T23:40:30.653Z,7.60
2022-11-27T23:42:57.256Z,7.60
2022-11-27T23:45:23.838Z,7.60
2022-11-27T23:47:50.498Z,7.60
2022-11-27T23:50:17.523Z,7.60
2022-11-27T23:52:44.066Z,7.60
2022-11-27T23:55:10.804Z,7.70
2022-11-27T23:57:37.377Z,7.60
